Bariri, Brazil
Current Conditions -  °F | °C
As of 10:00 PM on Saturday 22 Nov 2014 (Local Time) from SBBU Reporting Station
Broken Clouds Broken Clouds  
Wind Chill: 70°   Ceiling: 300
Heat Index: 70°   Visibility: 6mi
Dew Point: 70°   Wind: 6mph
Humidity: 100%   Direction: 120°ESE
Pressure: 29.94"   Gusts: NA
Location:  22.07°S, 48.74°W
Report Text: SBBU 230000Z 12005KT 9000 BKN003 BKN010 21/21 Q1014
Loading
Personal Weather Stations






























Interactive Weather Map New forecast layout! Learn more

10-Day Weather Forecast

Advertisements
Track Severe Weather on mobile